createdAt,value
2023-03-31T00:04:31.012Z,81.92
2023-03-31T00:10:17.318Z,81.82
2023-03-31T00:15:23.600Z,82.31
2023-03-31T00:20:55.257Z,82.45
2023-03-31T00:26:06.786Z,82.43
2023-03-31T00:31:12.287Z,83.27
2023-03-31T00:36:21.581Z,83.40
2023-03-31T00:42:46.538Z,83.40
2023-03-31T00:49:14.011Z,83.01
2023-03-31T00:55:10.557Z,83.18
2023-03-31T01:00:59.568Z,83.44
2023-03-31T01:06:08.273Z,83.66
2023-03-31T01:11:16.997Z,83.70
2023-03-31T01:16:31.462Z,83.36
2023-03-31T01:22:40.561Z,83.37
2023-03-31T01:29:21.374Z,83.50
2023-03-31T01:36:03.906Z,83.61
2023-03-31T01:43:03.155Z,83.44
2023-03-31T01:50:25.721Z,83.42
2023-03-31T01:56:28.916Z,83.68
2023-03-31T02:02:42.331Z,83.70
2023-03-31T02:08:50.114Z,83.79
2023-03-31T02:14:18.734Z,84.10
2023-03-31T02:19:48.792Z,84.03
2023-03-31T02:25:00.315Z,83.87
2023-03-31T02:32:13.178Z,83.93
2023-03-31T02:38:38.930Z,83.71
2023-03-31T02:44:44.967Z,83.49
2023-03-31T02:50:50.892Z,83.62
2023-03-31T02:57:49.031Z,83.98
2023-03-31T03:04:45.329Z,83.62
2023-03-31T03:11:36.259Z,83.67
2023-03-31T03:17:42.151Z,83.83
2023-03-31T03:24:24.001Z,83.67
2023-03-31T03:30:31.707Z,83.94
2023-03-31T03:37:24.777Z,83.76
2023-03-31T03:43:19.515Z,84.04
2023-03-31T03:49:29.175Z,83.79
2023-03-31T03:55:45.308Z,83.68
2023-03-31T04:01:02.418Z,83.40
2023-03-31T04:07:55.956Z,83.52
2023-03-31T04:13:58.317Z,83.38
2023-03-31T04:20:13.689Z,84.16
2023-03-31T04:25:23.165Z,84.25
2023-03-31T04:30:57.201Z,84.30
2023-03-31T04:37:14.141Z,84.53
2023-03-31T04:42:36.632Z,84.80
2023-03-31T04:47:44.811Z,84.66
2023-03-31T04:53:09.284Z,84.96
2023-03-31T04:58:40.917Z,85.10
2023-03-31T05:04:10.345Z,85.44
2023-03-31T05:10:18.543Z,85.63
2023-03-31T05:16:12.309Z,85.61
2023-03-31T05:21:39.812Z,85.68
2023-03-31T05:26:57.547Z,85.88
2023-03-31T05:32:18.483Z,85.90
2023-03-31T05:37:39.928Z,85.88
2023-03-31T05:42:43.154Z,86.12
2023-03-31T05:48:08.269Z,86.01
2023-03-31T05:53:54.241Z,86.05
2023-03-31T05:59:00.840Z,86.17
2023-03-31T06:04:33.820Z,85.75
2023-03-31T06:10:14.990Z,86.31
2023-03-31T06:15:41.654Z,85.99
2023-03-31T06:21:26.731Z,85.00
2023-03-31T06:26:44.772Z,83.73
2023-03-31T06:31:56.340Z,83.68
2023-03-31T06:37:41.583Z,83.00
2023-03-31T06:42:57.911Z,82.87
2023-03-31T06:48:05.126Z,82.60
2023-03-31T06:53:08.523Z,82.00
2023-03-31T06:58:12.416Z,82.05
2023-03-31T07:03:19.051Z,81.43
2023-03-31T07:08:36.216Z,80.84
2023-03-31T07:14:12.691Z,80.97
2023-03-31T07:19:25.530Z,80.23
2023-03-31T07:24:27.981Z,79.83
2023-03-31T07:29:30.313Z,79.66
2023-03-31T07:34:49.004Z,78.64
2023-03-31T07:40:05.136Z,77.62
2023-03-31T07:45:11.254Z,77.26
2023-03-31T07:50:15.199Z,76.47
2023-03-31T07:55:21.266Z,75.70
2023-03-31T08:00:35.127Z,75.57
2023-03-31T08:05:37.908Z,75.06
2023-03-31T08:10:50.979Z,74.75
2023-03-31T08:16:17.514Z,73.70
2023-03-31T08:21:32.608Z,73.54
2023-03-31T08:26:48.073Z,72.72
2023-03-31T08:31:50.551Z,72.35
2023-03-31T08:36:53.594Z,72.96
2023-03-31T08:42:02.571Z,72.60
2023-03-31T08:47:11.032Z,72.47
2023-03-31T08:52:19.006Z,72.13
2023-03-31T08:57:33.166Z,72.25
2023-03-31T09:03:05.009Z,71.99
2023-03-31T09:08:38.734Z,71.46
2023-03-31T09:14:02.784Z,71.58
2023-03-31T09:19:19.807Z,71.30
2023-03-31T09:24:44.800Z,70.49
2023-03-31T09:29:56.804Z,70.00
2023-03-31T09:35:14.550Z,69.63
2023-03-31T09:40:29.070Z,68.37
2023-03-31T09:45:34.007Z,68.81
2023-03-31T09:51:09.061Z,69.11
2023-03-31T09:56:11.694Z,68.89
2023-03-31T10:01:16.014Z,68.91
2023-03-31T10:06:19.041Z,67.20
2023-03-31T10:11:22.170Z,67.41
2023-03-31T10:16:30.207Z,66.41
2023-03-31T10:21:38.588Z,66.59
2023-03-31T10:26:47.089Z,67.09
2023-03-31T10:31:49.640Z,66.69
2023-03-31T10:37:21.527Z,67.14
2023-03-31T10:43:04.106Z,66.56
2023-03-31T10:48:50.300Z,66.55
2023-03-31T10:54:10.531Z,65.92
2023-03-31T11:00:11.253Z,65.32
2023-03-31T11:05:37.495Z,64.77
2023-03-31T11:10:47.852Z,65.30
2023-03-31T11:16:37.144Z,65.39
2023-03-31T11:22:19.747Z,65.16
2023-03-31T11:28:01.164Z,65.27
2023-03-31T11:34:12.104Z,65.88
2023-03-31T11:39:35.167Z,66.18
2023-03-31T11:44:54.813Z,66.32
2023-03-31T11:50:42.485Z,66.41
2023-03-31T11:56:56.808Z,65.80
2023-03-31T12:03:27.432Z,65.59
2023-03-31T12:09:36.962Z,65.28
2023-03-31T12:15:27.823Z,64.95
2023-03-31T12:20:38.370Z,63.83
2023-03-31T12:26:33.504Z,62.83
2023-03-31T12:31:43.563Z,59.47
2023-03-31T12:37:10.050Z,58.23
2023-03-31T12:42:54.961Z,58.53
2023-03-31T12:48:49.401Z,58.46
2023-03-31T12:54:50.174Z,59.10
2023-03-31T13:00:39.403Z,59.20
2023-03-31T13:07:02.492Z,59.95
2023-03-31T13:12:33.118Z,60.22
2023-03-31T13:18:00.668Z,61.32
2023-03-31T13:23:19.956Z,61.82
2023-03-31T13:28:42.428Z,63.20
2023-03-31T13:34:05.010Z,63.92
2023-03-31T13:40:07.602Z,65.03
2023-03-31T13:46:23.543Z,66.21
2023-03-31T13:52:02.333Z,67.24
2023-03-31T13:57:53.018Z,68.16
2023-03-31T14:03:51.429Z,68.94
2023-03-31T14:09:12.469Z,69.70
2023-03-31T14:14:19.485Z,70.81
2023-03-31T14:20:00.767Z,71.56
2023-03-31T14:26:23.931Z,71.98
2023-03-31T14:31:40.380Z,72.44
2023-03-31T14:37:17.741Z,72.57
2023-03-31T14:42:57.443Z,73.16
2023-03-31T14:48:16.477Z,73.68
2023-03-31T14:53:38.212Z,73.81
2023-03-31T14:58:50.152Z,73.94
2023-03-31T15:04:46.425Z,74.24
2023-03-31T15:09:56.414Z,74.57
2023-03-31T15:15:05.089Z,74.79
2023-03-31T15:20:35.447Z,74.66
2023-03-31T15:25:54.731Z,74.72
2023-03-31T15:31:09.613Z,74.05
2023-03-31T15:36:25.953Z,73.39
2023-03-31T15:41:41.646Z,72.92
2023-03-31T15:47:25.329Z,72.23
2023-03-31T15:52:35.197Z,71.88
2023-03-31T15:57:47.588Z,71.62
2023-03-31T16:03:05.765Z,71.71
2023-03-31T16:08:42.889Z,71.63
2023-03-31T16:14:23.053Z,71.78
2023-03-31T16:19:39.266Z,71.95
2023-03-31T16:24:46.792Z,72.07
2023-03-31T16:30:09.168Z,71.91
2023-03-31T16:35:19.884Z,72.04
2023-03-31T16:40:51.746Z,72.16
2023-03-31T16:46:04.182Z,72.34
2023-03-31T16:51:08.863Z,72.39
2023-03-31T16:56:15.364Z,72.58
2023-03-31T17:01:20.854Z,72.71
2023-03-31T17:06:47.550Z,72.81
2023-03-31T17:12:02.000Z,72.98
2023-03-31T17:17:07.601Z,73.40
2023-03-31T17:22:15.989Z,72.55
2023-03-31T17:28:04.319Z,72.40
2023-03-31T17:34:17.988Z,73.73
2023-03-31T17:40:18.572Z,74.77
2023-03-31T17:47:00.113Z,75.49
2023-03-31T17:53:28.421Z,75.81
2023-03-31T17:59:26.508Z,76.14
2023-03-31T18:04:55.036Z,76.36
2023-03-31T18:10:23.115Z,76.86
2023-03-31T18:16:49.283Z,77.15
2023-03-31T18:22:37.876Z,77.22
2023-03-31T18:29:02.858Z,77.64
2023-03-31T18:35:45.519Z,78.12
2023-03-31T18:42:25.677Z,78.53
2023-03-31T18:48:35.383Z,78.87
2023-03-31T18:55:29.232Z,78.52
2023-03-31T19:01:56.265Z,79.25
2023-03-31T19:08:11.156Z,79.50
2023-03-31T19:14:56.327Z,79.66
2023-03-31T19:21:50.382Z,79.52
2023-03-31T19:28:26.106Z,79.82
2023-03-31T19:35:09.820Z,79.67
2023-03-31T19:41:20.737Z,79.95
2023-03-31T19:47:54.310Z,80.10
2023-03-31T19:53:50.749Z,79.97
2023-03-31T19:59:33.926Z,80.20
2023-03-31T20:05:49.980Z,80.79
2023-03-31T20:11:54.879Z,80.72
2023-03-31T20:17:23.114Z,80.28
2023-03-31T20:23:54.099Z,79.80
2023-03-31T20:30:38.370Z,79.27
2023-03-31T20:37:05.309Z,78.69
2023-03-31T20:42:45.351Z,77.72
2023-03-31T20:49:31.602Z,77.35
2023-03-31T20:56:05.925Z,76.72
2023-03-31T21:01:37.410Z,76.43
2023-03-31T21:07:13.973Z,75.98
2023-03-31T21:13:18.481Z,76.10
2023-03-31T21:18:37.581Z,75.91
2023-03-31T21:23:53.985Z,75.87
2023-03-31T21:30:50.359Z,75.68
2023-03-31T21:36:45.316Z,75.87
2023-03-31T21:43:01.379Z,75.87
2023-03-31T21:49:43.352Z,75.79
2023-03-31T21:55:54.770Z,76.28
2023-03-31T22:02:35.773Z,76.09
2023-03-31T22:08:31.482Z,75.73
2023-03-31T22:15:15.601Z,75.97
2023-03-31T22:22:22.168Z,76.57
2023-03-31T22:28:38.009Z,76.92
2023-03-31T22:34:58.066Z,77.17
2023-03-31T22:40:33.687Z,77.02
2023-03-31T22:46:38.989Z,77.45
2023-03-31T22:52:17.842Z,77.88
2023-03-31T22:58:05.899Z,77.91
2023-03-31T23:04:11.770Z,78.00
2023-03-31T23:10:13.662Z,78.08
2023-03-31T23:17:03.607Z,78.28
2023-03-31T23:22:52.100Z,78.42
2023-03-31T23:29:09.783Z,78.66
2023-03-31T23:35:46.725Z,78.45
2023-03-31T23:42:27.859Z,78.56
2023-03-31T23:49:14.217Z,78.82
2023-03-31T23:55:26.152Z,79.19
